sensor_id;sensor_type;location;lat;lon;timestamp;pressure;altitude;pressure_sealevel;temperature;humidity
62126;BME280;48112;53.282;6.150;2023-02-12T00:00:50;103873.81;;;16.13;60.04
62126;BME280;48112;53.282;6.150;2023-02-12T00:01:52;103871.19;;;16.08;60.45
62126;BME280;48112;53.282;6.150;2023-02-12T00:02:55;103874.00;;;16.03;60.55
62126;BME280;48112;53.282;6.150;2023-02-12T00:03:56;103871.91;;;16.00;60.54
62126;BME280;48112;53.282;6.150;2023-02-12T00:05:00;103860.00;;;15.96;60.68
62126;BME280;48112;53.282;6.150;2023-02-12T00:06:05;103863.34;;;15.93;60.89
62126;BME280;48112;53.282;6.150;2023-02-12T00:07:10;103872.09;;;15.90;60.94
62126;BME280;48112;53.282;6.150;2023-02-12T00:08:12;103867.25;;;15.87;60.93
62126;BME280;48112;53.282;6.150;2023-02-12T00:09:16;103870.59;;;15.84;61.06
62126;BME280;48112;53.282;6.150;2023-02-12T00:10:18;103872.31;;;15.80;61.19
62126;BME280;48112;53.282;6.150;2023-02-12T00:11:22;103870.19;;;15.77;61.13
62126;BME280;48112;53.282;6.150;2023-02-12T00:12:24;103867.78;;;15.76;61.16
62126;BME280;48112;53.282;6.150;2023-02-12T00:13:28;103867.56;;;15.72;61.40
62126;BME280;48112;53.282;6.150;2023-02-12T00:14:30;103863.22;;;15.71;61.46
62126;BME280;48112;53.282;6.150;2023-02-12T00:15:37;103863.50;;;15.70;61.59
62126;BME280;48112;53.282;6.150;2023-02-12T00:16:38;103858.34;;;15.68;61.72
62126;BME280;48112;53.282;6.150;2023-02-12T00:17:41;103866.03;;;15.66;61.42
62126;BME280;48112;53.282;6.150;2023-02-12T00:18:43;103857.34;;;15.64;61.40
62126;BME280;48112;53.282;6.150;2023-02-12T00:19:47;103854.13;;;15.62;61.88
62126;BME280;48112;53.282;6.150;2023-02-12T00:20:50;103855.25;;;15.61;61.69
62126;BME280;48112;53.282;6.150;2023-02-12T00:21:53;103861.78;;;15.60;61.79
62126;BME280;48112;53.282;6.150;2023-02-12T00:22:54;103858.56;;;15.58;61.90
62126;BME280;48112;53.282;6.150;2023-02-12T00:23:57;103858.56;;;15.58;61.90
62126;BME280;48112;53.282;6.150;2023-02-12T00:24:59;103864.31;;;15.57;61.83
62126;BME280;48112;53.282;6.150;2023-02-12T00:26:03;103852.91;;;15.55;61.97
62126;BME280;48112;53.282;6.150;2023-02-12T00:27:05;103854.81;;;15.54;62.15
62126;BME280;48112;53.282;6.150;2023-02-12T00:28:08;103859.47;;;15.54;62.00
62126;BME280;48112;53.282;6.150;2023-02-12T00:29:10;103862.50;;;15.52;62.09
62126;BME280;48112;53.282;6.150;2023-02-12T00:30:12;103849.97;;;15.51;62.18
62126;BME280;48112;53.282;6.150;2023-02-12T00:31:15;103851.09;;;15.50;62.27
62126;BME280;48112;53.282;6.150;2023-02-12T00:32:18;103851.41;;;15.49;62.24
62126;BME280;48112;53.282;6.150;2023-02-12T00:33:20;103858.44;;;15.50;62.34
62126;BME280;48112;53.282;6.150;2023-02-12T00:34:22;103843.53;;;15.47;62.22
62126;BME280;48112;53.282;6.150;2023-02-12T00:35:24;103853.59;;;15.47;62.39
62126;BME280;48112;53.282;6.150;2023-02-12T00:36:28;103848.16;;;15.47;62.46
62126;BME280;48112;53.282;6.150;2023-02-12T00:37:32;103856.63;;;15.45;62.49
62126;BME280;48112;53.282;6.150;2023-02-12T00:38:35;103850.38;;;15.45;62.32
62126;BME280;48112;53.282;6.150;2023-02-12T00:39:36;103852.31;;;15.44;62.47
62126;BME280;48112;53.282;6.150;2023-02-12T00:40:39;103847.94;;;15.43;62.14
62126;BME280;48112;53.282;6.150;2023-02-12T00:41:41;103847.94;;;15.43;62.25
62126;BME280;48112;53.282;6.150;2023-02-12T00:42:43;103850.19;;;15.41;62.51
62126;BME280;48112;53.282;6.150;2023-02-12T00:43:45;103854.00;;;15.40;62.47
62126;BME280;48112;53.282;6.150;2023-02-12T00:44:49;103860.25;;;15.41;62.61
62126;BME280;48112;53.282;6.150;2023-02-12T00:45:50;103855.09;;;15.39;62.56
62126;BME280;48112;53.282;6.150;2023-02-12T00:46:53;103852.38;;;15.39;62.64
62126;BME280;48112;53.282;6.150;2023-02-12T00:47:55;103853.47;;;15.38;62.55
62126;BME280;48112;53.282;6.150;2023-02-12T00:48:57;103846.13;;;15.39;62.75
62126;BME280;48112;53.282;6.150;2023-02-12T00:49:59;103843.66;;;15.37;62.71
62126;BME280;48112;53.282;6.150;2023-02-12T00:51:02;103846.41;;;15.37;62.74
62126;BME280;48112;53.282;6.150;2023-02-12T00:52:05;103845.56;;;15.37;62.68
62126;BME280;48112;53.282;6.150;2023-02-12T00:53:08;103844.78;;;15.36;62.73
62126;BME280;48112;53.282;6.150;2023-02-12T00:54:09;103841.25;;;15.36;62.63
62126;BME280;48112;53.282;6.150;2023-02-12T00:55:12;103839.66;;;15.35;62.78
62126;BME280;48112;53.282;6.150;2023-02-12T00:56:14;103839.66;;;15.35;62.85
62126;BME280;48112;53.282;6.150;2023-02-12T00:57:17;103848.91;;;15.34;62.82
62126;BME280;48112;53.282;6.150;2023-02-12T00:58:18;103848.91;;;15.34;62.68
62126;BME280;48112;53.282;6.150;2023-02-12T00:59:21;103844.28;;;15.34;62.79
62126;BME280;48112;53.282;6.150;2023-02-12T01:00:23;103846.47;;;15.32;62.84
62126;BME280;48112;53.282;6.150;2023-02-12T01:01:25;103847.28;;;15.33;62.75
62126;BME280;48112;53.282;6.150;2023-02-12T01:02:27;103853.84;;;15.32;62.70
62126;BME280;48112;53.282;6.150;2023-02-12T01:03:29;103853.84;;;15.32;62.73
62126;BME280;48112;53.282;6.150;2023-02-12T01:04:32;103851.13;;;15.32;62.92
62126;BME280;48112;53.282;6.150;2023-02-12T01:05:35;103855.75;;;15.31;62.69
62126;BME280;48112;53.282;6.150;2023-02-12T01:06:37;103854.94;;;15.31;62.73
62126;BME280;48112;53.282;6.150;2023-02-12T01:07:41;103852.22;;;15.31;62.90
62126;BME280;48112;53.282;6.150;2023-02-12T01:08:43;103854.13;;;15.30;62.77
62126;BME280;48112;53.282;6.150;2023-02-12T01:09:45;103848.69;;;15.30;62.86
62126;BME280;48112;53.282;6.150;2023-02-12T01:10:52;103854.13;;;15.30;62.70
62126;BME280;48112;53.282;6.150;2023-02-12T01:11:55;103849.81;;;15.29;62.73
62126;BME280;48112;53.282;6.150;2023-02-12T01:12:57;103854.13;;;15.30;62.95
62126;BME280;48112;53.282;6.150;2023-02-12T01:14:00;103858.78;;;15.30;62.96
62126;BME280;48112;53.282;6.150;2023-02-12T01:15:01;103854.44;;;15.29;62.83
62126;BME280;48112;53.282;6.150;2023-02-12T01:16:05;103859.09;;;15.28;62.89
62126;BME280;48112;53.282;6.150;2023-02-12T01:17:09;103855.53;;;15.28;62.72
62126;BME280;48112;53.282;6.150;2023-02-12T01:18:11;103861.81;;;15.28;62.94
62126;BME280;48112;53.282;6.150;2023-02-12T01:19:16;103851.31;;;15.22;62.76
62126;BME280;48112;53.282;6.150;2023-02-12T01:20:20;103865.63;;;15.27;62.86
62126;BME280;48112;53.282;6.150;2023-02-12T01:21:23;103854.72;;;15.27;62.97
62126;BME280;48112;53.282;6.150;2023-02-12T01:22:26;103864.84;;;15.27;62.84
62126;BME280;48112;53.282;6.150;2023-02-12T01:23:29;103862.13;;;15.27;62.89
62126;BME280;48112;53.282;6.150;2023-02-12T01:24:32;103853.13;;;15.26;62.96
62126;BME280;48112;53.282;6.150;2023-02-12T01:25:36;103853.13;;;15.26;62.84
62126;BME280;48112;53.282;6.150;2023-02-12T01:26:39;103856.97;;;15.25;62.91
62126;BME280;48112;53.282;6.150;2023-02-12T01:27:40;103856.97;;;15.25;62.89
62126;BME280;48112;53.282;6.150;2023-02-12T01:28:47;103858.56;;;15.26;62.90
62126;BME280;48112;53.282;6.150;2023-02-12T01:29:49;103859.69;;;15.25;62.87
62126;BME280;48112;53.282;6.150;2023-02-12T01:30:54;103860.78;;;15.24;62.94
62126;BME280;48112;53.282;6.150;2023-02-12T01:31:55;103860.78;;;15.24;62.87
62126;BME280;48112;53.282;6.150;2023-02-12T01:32:58;103855.34;;;15.24;62.89
62126;BME280;48112;53.282;6.150;2023-02-12T01:34:00;103862.41;;;15.25;63.00
62126;BME280;48112;53.282;6.150;2023-02-12T01:35:03;103862.72;;;15.24;62.89
62126;BME280;48112;53.282;6.150;2023-02-12T01:36:06;103860.00;;;15.24;62.77
62126;BME280;48112;53.282;6.150;2023-02-12T01:37:08;103868.94;;;15.24;62.80
62126;BME280;48112;53.282;6.150;2023-02-12T01:38:10;103859.16;;;15.23;63.04
62126;BME280;48112;53.282;6.150;2023-02-12T01:39:14;103867.34;;;15.23;62.87
62126;BME280;48112;53.282;6.150;2023-02-12T01:40:17;103864.63;;;15.23;63.12
62126;BME280;48112;53.282;6.150;2023-02-12T01:41:19;103868.44;;;15.22;62.84
62126;BME280;48112;53.282;6.150;2023-02-12T01:42:22;103863.78;;;15.23;62.97
62126;BME280;48112;53.282;6.150;2023-02-12T01:43:24;103863.00;;;15.22;63.00
62126;BME280;48112;53.282;6.150;2023-02-12T01:44:27;103857.56;;;15.22;62.82
62126;BME280;48112;53.282;6.150;2023-02-12T01:46:56;103858.66;;;15.21;62.97
62126;BME280;48112;53.282;6.150;2023-02-12T01:47:59;103860.28;;;15.22;63.03
62126;BME280;48112;53.282;6.150;2023-02-12T01:49:01;103863.78;;;15.23;62.96
62126;BME280;48112;53.282;6.150;2023-02-12T01:50:06;103866.81;;;15.21;62.97
62126;BME280;48112;53.282;6.150;2023-02-12T01:51:08;103861.38;;;15.21;62.81
62126;BME280;48112;53.282;6.150;2023-02-12T01:52:13;103867.63;;;15.22;62.82
62126;BME280;48112;53.282;6.150;2023-02-12T01:53:16;103866.81;;;15.21;62.88
62126;BME280;48112;53.282;6.150;2023-02-12T01:54:22;103866.00;;;15.21;62.88
62126;BME280;48112;53.282;6.150;2023-02-12T01:55:27;103866.81;;;15.21;62.95
62126;BME280;48112;53.282;6.150;2023-02-12T01:56:28;103866.00;;;15.21;62.87
62126;BME280;48112;53.282;6.150;2023-02-12T01:57:32;103866.00;;;15.21;63.10
62126;BME280;48112;53.282;6.150;2023-02-12T01:58:35;103864.09;;;15.21;63.03
62126;BME280;48112;53.282;6.150;2023-02-12T01:59:39;103866.81;;;15.21;63.04
62126;BME280;48112;53.282;6.150;2023-02-12T02:00:41;103866.81;;;15.21;62.86
62126;BME280;48112;53.282;6.150;2023-02-12T02:01:44;103866.81;;;15.21;62.92
62126;BME280;48112;53.282;6.150;2023-02-12T02:02:47;103870.66;;;15.20;62.85
62126;BME280;48112;53.282;6.150;2023-02-12T02:03:51;103865.22;;;15.20;62.99
62126;BME280;48112;53.282;6.150;2023-02-12T02:04:54;103871.44;;;15.21;62.93
62126;BME280;48112;53.282;6.150;2023-02-12T02:06:00;103874.47;;;15.19;62.89
62126;BME280;48112;53.282;6.150;2023-02-12T02:07:07;103877.72;;;15.21;62.98
62126;BME280;48112;53.282;6.150;2023-02-12T02:08:11;103870.66;;;15.20;62.77
62126;BME280;48112;53.282;6.150;2023-02-12T02:09:13;103870.66;;;15.20;62.94
62126;BME280;48112;53.282;6.150;2023-02-12T02:10:17;103867.13;;;15.20;62.94
62126;BME280;48112;53.282;6.150;2023-02-12T02:11:19;103862.50;;;15.20;62.82
62126;BME280;48112;53.282;6.150;2023-02-12T02:12:39;103867.13;;;15.20;62.78
62126;BME280;48112;53.282;6.150;2023-02-12T02:13:59;103866.31;;;15.19;63.02
62126;BME280;48112;53.282;6.150;2023-02-12T02:15:20;103865.22;;;15.20;62.85
62126;BME280;48112;53.282;6.150;2023-02-12T02:16:25;103865.50;;;15.19;62.95
62126;BME280;48112;53.282;6.150;2023-02-12T02:17:34;103863.56;;;15.19;62.76
62126;BME280;48112;53.282;6.150;2023-02-12T02:18:39;103868.22;;;15.19;62.85
62126;BME280;48112;53.282;6.150;2023-02-12T02:19:49;103862.78;;;15.19;62.83
62126;BME280;48112;53.282;6.150;2023-02-12T02:21:03;103863.56;;;15.19;63.00
62126;BME280;48112;53.282;6.150;2023-02-12T02:22:22;103866.31;;;15.19;62.86
62126;BME280;48112;53.282;6.150;2023-02-12T02:23:38;103860.84;;;15.19;62.88
62126;BME280;48112;53.282;6.150;2023-02-12T02:24:49;103863.56;;;15.19;63.00
62126;BME280;48112;53.282;6.150;2023-02-12T02:26:13;103860.84;;;15.19;63.02
62126;BME280;48112;53.282;6.150;2023-02-12T02:27:24;103861.97;;;15.18;62.87
62126;BME280;48112;53.282;6.150;2023-02-12T02:28:32;103861.97;;;15.18;63.00
62126;BME280;48112;53.282;6.150;2023-02-12T02:29:47;103861.97;;;15.18;62.82
62126;BME280;48112;53.282;6.150;2023-02-12T02:30:59;103860.38;;;15.17;62.83
62126;BME280;48112;53.282;6.150;2023-02-12T02:32:06;103853.81;;;15.18;63.02
62126;BME280;48112;53.282;6.150;2023-02-12T02:33:15;103854.94;;;15.17;62.94
62126;BME280;48112;53.282;6.150;2023-02-12T02:34:23;103849.47;;;15.17;63.11
62126;BME280;48112;53.282;6.150;2023-02-12T02:35:31;103860.06;;;15.19;62.93
62126;BME280;48112;53.282;6.150;2023-02-12T02:36:39;103860.38;;;15.17;62.81
62126;BME280;48112;53.282;6.150;2023-02-12T02:38:03;103857.66;;;15.17;62.86
62126;BME280;48112;53.282;6.150;2023-02-12T02:39:08;103857.66;;;15.17;62.71
62126;BME280;48112;53.282;6.150;2023-02-12T02:40:16;103859.56;;;15.17;62.71
62126;BME280;48112;53.282;6.150;2023-02-12T02:41:18;103856.53;;;15.18;62.83
62126;BME280;48112;53.282;6.150;2023-02-12T02:42:25;103846.75;;;15.17;62.93
62126;BME280;48112;53.282;6.150;2023-02-12T02:43:30;103854.94;;;15.17;62.90
62126;BME280;48112;53.282;6.150;2023-02-12T02:44:36;103840.50;;;15.17;62.83
62126;BME280;48112;53.282;6.150;2023-02-12T02:45:41;103848.66;;;15.17;62.71
62126;BME280;48112;53.282;6.150;2023-02-12T02:46:46;103842.41;;;15.16;62.87
62126;BME280;48112;53.282;6.150;2023-02-12T02:47:50;103844.03;;;15.17;62.61
62126;BME280;48112;53.282;6.150;2023-02-12T02:48:55;103844.03;;;15.17;62.59
62126;BME280;48112;53.282;6.150;2023-02-12T02:50:01;103845.13;;;15.16;62.78
62126;BME280;48112;53.282;6.150;2023-02-12T02:51:05;103850.56;;;15.16;62.94
62126;BME280;48112;53.282;6.150;2023-02-12T02:52:10;103857.66;;;15.17;62.80
62126;BME280;48112;53.282;6.150;2023-02-12T02:53:15;103845.94;;;15.17;62.68
62126;BME280;48112;53.282;6.150;2023-02-12T02:54:20;103853.28;;;15.16;62.72
62126;BME280;48112;53.282;6.150;2023-02-12T02:55:24;103853.28;;;15.16;62.69
62126;BME280;48112;53.282;6.150;2023-02-12T02:56:31;103857.13;;;15.15;62.91
62126;BME280;48112;53.282;6.150;2023-02-12T02:57:37;103859.56;;;15.17;62.64
62126;BME280;48112;53.282;6.150;2023-02-12T02:58:42;103863.09;;;15.17;62.94
62126;BME280;48112;53.282;6.150;2023-02-12T02:59:45;103854.09;;;15.17;62.77
62126;BME280;48112;53.282;6.150;2023-02-12T03:00:51;103854.09;;;15.17;62.71
62126;BME280;48112;53.282;6.150;2023-02-12T03:01:58;103856.00;;;15.16;62.84
62126;BME280;48112;53.282;6.150;2023-02-12T03:03:05;103846.75;;;15.17;62.81
62126;BME280;48112;53.282;6.150;2023-02-12T03:04:09;103847.84;;;15.16;62.90
62126;BME280;48112;53.282;6.150;2023-02-12T03:05:15;103853.28;;;15.16;62.78
62126;BME280;48112;53.282;6.150;2023-02-12T03:06:19;103853.28;;;15.16;62.77
62126;BME280;48112;53.282;6.150;2023-02-12T03:07:24;103857.66;;;15.17;62.89
62126;BME280;48112;53.282;6.150;2023-02-12T03:08:28;103854.09;;;15.17;62.70
62126;BME280;48112;53.282;6.150;2023-02-12T03:09:36;103850.56;;;15.16;62.78
62126;BME280;48112;53.282;6.150;2023-02-12T03:10:39;103853.28;;;15.16;62.87
62126;BME280;48112;53.282;6.150;2023-02-12T03:11:43;103856.00;;;15.16;62.53
62126;BME280;48112;53.282;6.150;2023-02-12T03:12:47;103845.13;;;15.16;62.69
62126;BME280;48112;53.282;6.150;2023-02-12T03:13:54;103854.09;;;15.17;62.85
62126;BME280;48112;53.282;6.150;2023-02-12T03:14:58;103857.94;;;15.16;62.91
62126;BME280;48112;53.282;6.150;2023-02-12T03:16:06;103862.28;;;15.17;62.63
62126;BME280;48112;53.282;6.150;2023-02-12T03:17:12;103847.84;;;15.16;62.74
62126;BME280;48112;53.282;6.150;2023-02-12T03:18:16;103853.28;;;15.16;62.73
62126;BME280;48112;53.282;6.150;2023-02-12T03:19:20;103857.94;;;15.16;62.60
62126;BME280;48112;53.282;6.150;2023-02-12T03:20:25;103852.50;;;15.16;62.71
62126;BME280;48112;53.282;6.150;2023-02-12T03:21:30;103856.84;;;15.17;62.78
62126;BME280;48112;53.282;6.150;2023-02-12T03:22:35;103852.50;;;15.16;62.67
62126;BME280;48112;53.282;6.150;2023-02-12T03:23:38;103845.13;;;15.16;62.61
62126;BME280;48112;53.282;6.150;2023-02-12T03:24:43;103850.09;;;15.14;62.51
62126;BME280;48112;53.282;6.150;2023-02-12T03:25:47;103853.28;;;15.16;62.75
62126;BME280;48112;53.282;6.150;2023-02-12T03:26:53;103851.69;;;15.15;62.75
62126;BME280;48112;53.282;6.150;2023-02-12T03:27:57;103854.41;;;15.15;62.74
62126;BME280;48112;53.282;6.150;2023-02-12T03:29:02;103845.13;;;15.16;62.67
62126;BME280;48112;53.282;6.150;2023-02-12T03:30:05;103852.50;;;15.16;62.85
62126;BME280;48112;53.282;6.150;2023-02-12T03:31:09;103850.56;;;15.16;62.77
62126;BME280;48112;53.282;6.150;2023-02-12T03:32:22;103851.69;;;15.15;62.48
62126;BME280;48112;53.282;6.150;2023-02-12T03:33:27;103848.97;;;15.15;62.69
62126;BME280;48112;53.282;6.150;2023-02-12T03:34:33;103864.19;;;15.16;62.75
62126;BME280;48112;53.282;6.150;2023-02-12T03:35:41;103857.13;;;15.15;62.76
62126;BME280;48112;53.282;6.150;2023-02-12T03:36:44;103861.75;;;15.15;62.77
62126;BME280;48112;53.282;6.150;2023-02-12T03:37:53;103857.13;;;15.15;62.74
62126;BME280;48112;53.282;6.150;2023-02-12T03:38:57;103851.69;;;15.15;62.27
62126;BME280;48112;53.282;6.150;2023-02-12T03:40:10;103848.16;;;15.15;62.83
62126;BME280;48112;53.282;6.150;2023-02-12T03:41:17;103850.88;;;15.15;62.55
62126;BME280;48112;53.282;6.150;2023-02-12T03:42:24;103850.09;;;15.14;62.71
62126;BME280;48112;53.282;6.150;2023-02-12T03:43:28;103846.25;;;15.15;62.68
62126;BME280;48112;53.282;6.150;2023-02-12T03:44:37;103850.88;;;15.15;62.63
62126;BME280;48112;53.282;6.150;2023-02-12T03:45:43;103841.91;;;15.14;62.63
62126;BME280;48112;53.282;6.150;2023-02-12T03:46:49;103841.91;;;15.14;62.50
62126;BME280;48112;53.282;6.150;2023-02-12T03:48:00;103850.09;;;15.14;62.74
62126;BME280;48112;53.282;6.150;2023-02-12T03:49:06;103846.25;;;15.15;62.55
62126;BME280;48112;53.282;6.150;2023-02-12T03:50:12;103857.13;;;15.15;62.59
62126;BME280;48112;53.282;6.150;2023-02-12T03:51:17;103852.81;;;15.14;62.25
62126;BME280;48112;53.282;6.150;2023-02-12T03:52:20;103849.25;;;15.14;62.50
62126;BME280;48112;53.282;6.150;2023-02-12T03:53:23;103840.78;;;15.15;62.36
62126;BME280;48112;53.282;6.150;2023-02-12T03:54:25;103850.09;;;15.14;62.62
62126;BME280;48112;53.282;6.150;2023-02-12T03:55:28;103844.63;;;15.14;62.34
62126;BME280;48112;53.282;6.150;2023-02-12T03:56:32;103839.97;;;15.15;62.53
62126;BME280;48112;53.282;6.150;2023-02-12T03:57:38;103846.25;;;15.15;62.72
62126;BME280;48112;53.282;6.150;2023-02-12T03:58:41;103841.09;;;15.14;62.57
62126;BME280;48112;53.282;6.150;2023-02-12T03:59:45;103848.16;;;15.15;62.34
62126;BME280;48112;53.282;6.150;2023-02-12T04:00:47;103839.19;;;15.14;62.67
62126;BME280;48112;53.282;6.150;2023-02-12T04:01:51;103844.63;;;15.14;62.67
62126;BME280;48112;53.282;6.150;2023-02-12T04:02:53;103841.91;;;15.14;62.43
62126;BME280;48112;53.282;6.150;2023-02-12T04:03:58;103843.81;;;15.14;62.61
62126;BME280;48112;53.282;6.150;2023-02-12T04:05:03;103841.09;;;15.14;62.60
62126;BME280;48112;53.282;6.150;2023-02-12T04:06:16;103843.81;;;15.14;62.38
62126;BME280;48112;53.282;6.150;2023-02-12T04:07:19;103839.97;;;15.15;62.44
62126;BME280;48112;53.282;6.150;2023-02-12T04:08:22;103841.91;;;15.14;62.42
62126;BME280;48112;53.282;6.150;2023-02-12T04:09:25;103841.91;;;15.14;62.66
62126;BME280;48112;53.282;6.150;2023-02-12T04:10:29;103840.28;;;15.13;62.51
62126;BME280;48112;53.282;6.150;2023-02-12T04:11:34;103838.38;;;15.14;62.58
62126;BME280;48112;53.282;6.150;2023-02-12T04:12:39;103855.53;;;15.14;62.44
62126;BME280;48112;53.282;6.150;2023-02-12T04:13:44;103855.53;;;15.14;62.63
62126;BME280;48112;53.282;6.150;2023-02-12T04:14:54;103848.44;;;15.13;62.41
62126;BME280;48112;53.282;6.150;2023-02-12T04:16:01;103851.16;;;15.13;62.20
62126;BME280;48112;53.282;6.150;2023-02-12T04:17:08;103859.34;;;15.13;62.45
62126;BME280;48112;53.282;6.150;2023-02-12T04:18:12;103848.44;;;15.13;62.64
62126;BME280;48112;53.282;6.150;2023-02-12T04:19:19;103862.06;;;15.13;62.61
62126;BME280;48112;53.282;6.150;2023-02-12T04:20:25;103846.84;;;15.12;62.61
62126;BME280;48112;53.282;6.150;2023-02-12T04:21:36;103842.22;;;15.13;62.32
62126;BME280;48112;53.282;6.150;2023-02-12T04:22:44;103851.97;;;15.14;62.74
62126;BME280;48112;53.282;6.150;2023-02-12T04:23:47;103846.03;;;15.12;62.30
62126;BME280;48112;53.282;6.150;2023-02-12T04:24:55;103847.66;;;15.13;62.59
62126;BME280;48112;53.282;6.150;2023-02-12T04:26:04;103853.09;;;15.13;62.65
62126;BME280;48112;53.282;6.150;2023-02-12T04:27:11;103845.22;;;15.11;62.63
62126;BME280;48112;53.282;6.150;2023-02-12T04:28:16;103851.47;;;15.12;62.24
62126;BME280;48112;53.282;6.150;2023-02-12T04:29:25;103852.28;;;15.12;62.38
62126;BME280;48112;53.282;6.150;2023-02-12T04:30:31;103847.66;;;15.13;62.53
62126;BME280;48112;53.282;6.150;2023-02-12T04:31:37;103856.09;;;15.11;62.41
62126;BME280;48112;53.282;6.150;2023-02-12T04:32:43;103855.81;;;15.13;62.32
62126;BME280;48112;53.282;6.150;2023-02-12T04:33:47;103853.38;;;15.11;62.35
62126;BME280;48112;53.282;6.150;2023-02-12T04:34:56;103860.44;;;15.12;62.44
62126;BME280;48112;53.282;6.150;2023-02-12T04:35:59;103857.72;;;15.12;62.33
62126;BME280;48112;53.282;6.150;2023-02-12T04:37:03;103858.53;;;15.13;62.47
62126;BME280;48112;53.282;6.150;2023-02-12T04:38:08;103861.53;;;15.11;62.35
62126;BME280;48112;53.282;6.150;2023-02-12T04:39:14;103860.75;;;15.11;62.50
62126;BME280;48112;53.282;6.150;2023-02-12T04:40:18;103853.38;;;15.11;62.31
62126;BME280;48112;53.282;6.150;2023-02-12T04:41:21;103859.63;;;15.12;62.33
62126;BME280;48112;53.282;6.150;2023-02-12T04:42:23;103856.09;;;15.11;62.36
62126;BME280;48112;53.282;6.150;2023-02-12T04:43:26;103851.75;;;15.10;62.28
62126;BME280;48112;53.282;6.150;2023-02-12T04:44:30;103856.09;;;15.11;62.31
62126;BME280;48112;53.282;6.150;2023-02-12T04:45:33;103859.13;;;15.10;62.21
62126;BME280;48112;53.282;6.150;2023-02-12T04:46:39;103865.38;;;15.10;62.14
62126;BME280;48112;53.282;6.150;2023-02-12T04:47:40;103860.75;;;15.11;62.47
62126;BME280;48112;53.282;6.150;2023-02-12T04:48:47;103852.97;;;15.04;62.27
62126;BME280;48112;53.282;6.150;2023-02-12T04:49:50;103866.97;;;15.11;62.34
62126;BME280;48112;53.282;6.150;2023-02-12T04:50:54;103865.38;;;15.10;62.35
62126;BME280;48112;53.282;6.150;2023-02-12T04:51:56;103862.66;;;15.10;62.27
62126;BME280;48112;53.282;6.150;2023-02-12T04:52:58;103870.81;;;15.10;62.43
62126;BME280;48112;53.282;6.150;2023-02-12T04:54:00;103865.38;;;15.10;62.26
62126;BME280;48112;53.282;6.150;2023-02-12T04:55:03;103864.56;;;15.10;62.27
62126;BME280;48112;53.282;6.150;2023-02-12T04:56:05;103864.56;;;15.10;62.23
62126;BME280;48112;53.282;6.150;2023-02-12T04:57:08;103863.78;;;15.09;62.18
62126;BME280;48112;53.282;6.150;2023-02-12T04:58:09;103869.22;;;15.09;62.33
62126;BME280;48112;53.282;6.150;2023-02-12T04:59:12;103866.50;;;15.09;62.28
62126;BME280;48112;53.282;6.150;2023-02-12T05:00:14;103866.50;;;15.09;62.40
62126;BME280;48112;53.282;6.150;2023-02-12T05:01:17;103874.66;;;15.09;62.37
62126;BME280;48112;53.282;6.150;2023-02-12T05:02:19;103872.72;;;15.10;62.36
62126;BME280;48112;53.282;6.150;2023-02-12T05:03:21;103880.88;;;15.10;62.17
62126;BME280;48112;53.282;6.150;2023-02-12T05:04:23;103880.88;;;15.10;62.12
62126;BME280;48112;53.282;6.150;2023-02-12T05:05:26;103874.66;;;15.09;62.35
62126;BME280;48112;53.282;6.150;2023-02-12T05:06:29;103873.00;;;15.08;62.15
62126;BME280;48112;53.282;6.150;2023-02-12T05:07:31;103880.09;;;15.09;62.04
62126;BME280;48112;53.282;6.150;2023-02-12T05:08:33;103873.00;;;15.08;62.10
62126;BME280;48112;53.282;6.150;2023-02-12T05:09:36;103874.66;;;15.09;62.05
62126;BME280;48112;53.282;6.150;2023-02-12T05:10:39;103873.00;;;15.08;62.15
62126;BME280;48112;53.282;6.150;2023-02-12T05:11:42;103869.22;;;15.09;62.18
62126;BME280;48112;53.282;6.150;2023-02-12T05:12:44;103871.13;;;15.09;62.31
62126;BME280;48112;53.282;6.150;2023-02-12T05:13:47;103870.00;;;15.10;62.23
62126;BME280;48112;53.282;6.150;2023-02-12T05:14:48;103873.84;;;15.09;62.19
62126;BME280;48112;53.282;6.150;2023-02-12T05:15:51;103873.84;;;15.09;62.20
62126;BME280;48112;53.282;6.150;2023-02-12T05:16:53;103873.84;;;15.09;62.18
62126;BME280;48112;53.282;6.150;2023-02-12T05:17:55;103866.50;;;15.09;62.18
62126;BME280;48112;53.282;6.150;2023-02-12T05:18:57;103873.00;;;15.08;62.25
62126;BME280;48112;53.282;6.150;2023-02-12T05:19:59;103874.66;;;15.09;62.23
62126;BME280;48112;53.282;6.150;2023-02-12T05:21:02;103873.00;;;15.08;62.24
62126;BME280;48112;53.282;6.150;2023-02-12T05:22:06;103870.28;;;15.08;62.04
62126;BME280;48112;53.282;6.150;2023-02-12T05:23:07;103876.56;;;15.09;62.21
62126;BME280;48112;53.282;6.150;2023-02-12T05:24:10;103872.22;;;15.08;61.90
62126;BME280;48112;53.282;6.150;2023-02-12T05:25:12;103873.84;;;15.09;61.98
62126;BME280;48112;53.282;6.150;2023-02-12T05:26:15;103875.75;;;15.08;62.08
62126;BME280;48112;53.282;6.150;2023-02-12T05:27:17;103873.00;;;15.08;62.05
62126;BME280;48112;53.282;6.150;2023-02-12T05:28:19;103873.84;;;15.09;62.45
62126;BME280;48112;53.282;6.150;2023-02-12T05:29:21;103869.50;;;15.08;62.14
62126;BME280;48112;53.282;6.150;2023-02-12T05:30:24;103868.41;;;15.09;61.97
62126;BME280;48112;53.282;6.150;2023-02-12T05:31:25;103870.28;;;15.08;62.08
62126;BME280;48112;53.282;6.150;2023-02-12T05:32:28;103866.78;;;15.08;62.15
62126;BME280;48112;53.282;6.150;2023-02-12T05:33:30;103868.69;;;15.07;62.01
62126;BME280;48112;53.282;6.150;2023-02-12T05:34:33;103874.94;;;15.08;61.96
62126;BME280;48112;53.282;6.150;2023-02-12T05:35:35;103878.47;;;15.08;61.94
62126;BME280;48112;53.282;6.150;2023-02-12T05:36:38;103885.03;;;15.07;62.10
62126;BME280;48112;53.282;6.150;2023-02-12T05:37:41;103876.84;;;15.07;62.21
62126;BME280;48112;53.282;6.150;2023-02-12T05:38:43;103879.56;;;15.07;61.87